JAN weather

Jackson-Medgar Wiley Evers International Airport
Jackson, Mississippi, United States

Public forecast

Using degrees Fahrenheit for public forecast. Weather courtesy of forecast.io.

METAR (pilot weather report)

Retrieved 2019/08/21 23:54 UTC (25 minutes ago):

KJAN 212354Z 15006KT 10SM FEW021 SCT043 BKN120 26/22 A3000 RMK AO2 LTG DSNT NW SLP153 T02610217 10339 20261 50004

TAF (pilot weather forecast)

Forecast is more than 12 hours old.

Retrieved 2019/08/21 00:36 UTC (24 hours ago):

TAF KJAN 212333Z 2200/2224 18003KT P6SM SCT040 BKN120 FM221100 18005KT P6SM OVC015 FM221400 22006KT P6SM BKN025 FM221900 20007KT P6SM VCTS BKN050CB